Latest Weather Observations for Paraburdoo

IDW60801

Issued at 11:42 pm WST Thursday 1 December 2022 (issued every 10 minutes, with the page automatically refreshed every 10 minutes)

About weather observations | Map of weather stations | Latest weather observations for WA | Other Formats
Station Details ID: 007185 Name: PARABURDOO AERO Lat: -23.17 Lon: 117.75 Height: 423.7 m
Data from the previous 72 hours. | See also: Recent months at Paraburdoo
Date/Time
WST
Temp
°C
App
Temp
°C
Dew
Point
°C
Rel
Hum
%
Delta-T
°C
Wind Press
QNH
hPa
Press
MSL
hPa
Rain since
9am
mm
Dir  Spd
km/h
Gust
km/h
Spd
kts
Gust
kts
01/11:30pm 33.8 30.1 4.5 16 15.8 SSW 13 19 7 10 1005.9 1002.3 -
01/11:00pm 29.2 26.4 3.2 19 13.4 SSW 7 9 4 5 1006.2 1002.5 -
01/10:30pm 31.1 28.3 3.2 17 14.5 NNE 7 7 4 4 1006.2 1002.5 -
01/10:00pm 30.8 29.1 2.1 16 14.6 CALM 0 0 0 0 1006.3 1002.6 -
01/09:30pm 32.4 29.8 3.4 16 15.2 SSW 6 7 3 4 1006.3 1002.6 -
01/09:00pm 32.4 29.5 2.5 15 15.5 SW 7 7 4 4 1006.2 1002.5 -
01/08:30pm 35.2 32.1 3.7 14 16.8 WSW 9 11 5 6 1006.0 1002.4 -
01/08:00pm 35.8 32.6 3.1 13 17.4 SW 9 11 5 6 1005.8 1002.2 -
01/07:30pm 36.5 33.4 3.7 13 17.7 SW 9 11 5 6 1005.6 1002.0 -
01/07:00pm 37.5 33.6 3.3 12 18.4 WSW 13 17 7 9 1005.4 1001.8 -
01/06:30pm 38.1 33.1 3.8 12 18.6 WSW 19 24 10 13 1005.1 1001.4 -
01/06:00pm 38.5 34.4 4.1 12 18.9 SW 15 22 8 12 1004.8 1001.1 -
01/05:30pm 39.4 35.1 3.5 11 19.5 SW 15 20 8 11 1004.6 1000.9 -
01/05:00pm 38.9 34.6 3.1 11 19.4 WSW 15 28 8 15 1004.5 1000.8 -
01/04:30pm 39.5 34.9 3.6 11 19.6 W 17 26 9 14 1004.5 1000.8 -
01/04:08pm 40.2 35.1 2.8 10 20.2 WSW 19 37 10 20 1004.5 1000.8 -
01/04:00pm 40.3 35.5 2.8 10 20.4 W 17 30 9 16 1004.5 1000.8 -
01/03:30pm 39.5 35.0 2.2 10 19.9 SSE 15 22 8 12 1004.7 1001.0 -
01/03:00pm 39.6 36.3 2.3 10 20.0 W 9 17 5 9 1005.1 1001.4 -
01/02:30pm 39.8 34.6 2.5 10 20.1 WSW 19 26 10 14 1005.4 1001.8 -
01/02:00pm 39.9 35.3 3.9 11 19.8 WSW 17 30 9 16 1005.9 1002.3 -
01/01:30pm 39.6 35.8 3.7 11 19.6 SW 13 26 7 14 1006.2 1002.5 -
01/01:00pm 39.1 33.9 3.3 11 19.5 SW 20 33 11 18 1006.7 1003.0 -
01/12:30pm 38.9 34.6 3.1 11 19.3 WNW 15 22 8 12 1007.1 1003.4 -
01/12:00pm 38.1 33.5 3.8 12 18.7 S 17 30 9 16 1007.5 1003.9 -
01/11:30am 37.8 33.8 4.7 13 18.2 SSW 15 28 8 15 1008.1 1004.5 -
01/11:00am 36.8 31.9 3.9 13 17.8 WSW 19 32 10 17 1008.5 1004.9 -
01/10:30am 36.4 32.2 3.6 13 17.6 SSW 15 28 8 15 1009.0 1005.3 -
01/10:00am 35.6 31.3 3.0 13 17.3 SSW 15 24 8 13 1009.2 1005.5 -
01/09:30am 35.3 31.1 3.8 14 16.9 SSW 15 22 8 12 1009.4 1005.7 -
01/09:00am 34.1 29.5 3.8 15 16.1 SSE 17 24 9 13 1009.6 1005.9 -
01/08:30am 33.5 29.2 3.3 15 15.9 S 15 20 8 11 1009.7 1006.1 -
01/08:00am 32.4 29.0 4.2 17 15.0 SW 11 15 6 8 1009.6 1005.9 -
01/07:30am 31.2 27.9 6.3 21 13.6 WSW 13 17 7 9 1009.4 1006.2 -
01/07:00am 30.2 26.5 6.1 22 13.1 WSW 15 19 8 10 1009.3 1006.1 -
01/06:30am 29.5 26.8 5.6 22 12.8 W 9 15 5 8 1009.2 1006.0 -
01/06:00am 27.6 24.4 5.2 24 11.8 WNW 11 15 6 8 1008.9 1005.7 -
01/05:30am 26.8 23.9 4.6 24 11.5 WNW 9 11 5 6 1008.5 1005.4 -
01/05:00am 27.7 25.3 5.3 24 11.8 WNW 7 13 4 7 1008.0 1004.8 -
01/04:30am 27.4 25.0 5.1 24 11.7 WNW 7 9 4 5 1007.7 1004.5 -
01/04:00am 29.2 25.3 5.3 22 12.7 W 15 20 8 11 1007.6 1004.4 -
01/03:30am 29.9 26.2 9.4 28 11.7 WSW 19 24 10 13 1007.4 1004.2 -
01/03:00am 30.3 27.7 10.8 30 11.4 WSW 15 19 8 10 1007.2 1004.0 -
01/02:30am 30.5 27.6 11.0 30 11.4 W 17 26 9 14 1007.0 1003.8 -
01/02:00am 31.4 28.1 9.6 26 12.6 WSW 17 24 9 13 1006.8 1003.6 -
01/01:30am 32.1 27.1 6.3 20 14.1 W 22 28 12 15 1006.9 1003.7 -
01/01:00am 31.9 27.3 8.2 23 13.4 WNW 22 32 12 17 1006.9 1003.7 -
01/12:30am 32.5 27.1 8.0 22 13.8 WNW 26 35 14 19 1007.1 1003.9 -
01/12:00am 32.5 28.4 8.7 23 13.6 NNW 20 26 11 14 1007.1 1003.9 -
 
Date/Time
WST
Temp
°C
App
Temp
°C
Dew
Point
°C
Rel
Hum
%
Delta-T
°C
Wind Press
QNH
hPa
Press
MSL
hPa
Rain since
9am
mm
Dir  Spd
km/h
Gust
km/h
Spd
kts
Gust
kts
30/11:30pm 32.6 29.1 12.3 29 12.2 N 22 30 12 16 1007.3 1004.1 -
30/11:00pm 32.9 30.4 14.0 32 11.7 N 20 33 11 18 1007.4 1004.2 -
30/10:30pm 33.1 29.3 13.7 31 12.0 N 26 33 14 18 1007.4 1004.2 -
30/10:00pm 33.7 29.9 13.7 30 12.4 NNE 26 35 14 19 1007.6 1004.4 -
30/09:30pm 33.9 31.3 13.9 30 12.4 NNE 20 26 11 14 1007.5 1004.3 -
30/09:00pm 33.5 29.7 13.5 29 12.4 NE 26 33 14 18 1007.1 1003.9 -
30/08:30pm 33.8 29.7 13.8 30 12.4 NE 28 35 15 19 1006.9 1003.7 -
30/08:00pm 34.2 30.0 13.6 28 12.8 ENE 28 43 15 23 1006.6 1003.4 -
30/07:43pm 35.0 30.5 12.6 26 13.7 NE 28 44 15 24 1006.2 1002.9 -
30/07:30pm 35.6 33.9 11.3 23 14.6 SSE 11 20 6 11 1006.3 1003.1 -
30/07:00pm 38.3 34.3 2.7 11 19.1 WSW 13 20 7 11 1005.7 1002.5 -
30/06:30pm 38.9 33.6 1.8 10 19.6 W 19 24 10 13 1005.3 1002.1 -
30/06:00pm 39.4 34.0 2.2 10 19.9 WSW 20 26 11 14 1005.0 1001.8 -
30/05:30pm 39.7 34.9 2.4 10 20.0 W 17 28 9 15 1004.9 1001.7 -
30/05:00pm 40.5 35.5 1.5 9 20.8 WSW 17 32 9 17 1004.8 1001.6 -
30/04:30pm 40.7 35.2 1.7 9 20.8 WSW 20 32 11 17 1004.8 1001.6 -
30/04:00pm 40.6 37.0 3.1 10 20.5 WSW 11 20 6 11 1004.8 1001.6 -
30/03:30pm 40.4 35.3 2.9 10 20.3 SW 19 30 10 16 1004.8 1001.6 -
30/03:00pm 41.4 36.8 3.7 10 20.9 SW 17 26 9 14 1005.1 1001.9 -
30/02:30pm 40.3 35.2 2.8 10 20.3 W 19 33 10 18 1005.5 1002.3 -
30/02:00pm 40.8 34.8 3.2 10 20.6 W 24 35 13 19 1005.9 1002.7 -
30/01:30pm 39.4 34.4 4.7 12 19.2 WSW 20 33 11 18 1006.3 1003.1 -
30/01:00pm 40.4 36.4 6.7 13 19.4 WNW 17 37 9 20 1007.0 1003.8 -
30/12:30pm 39.2 34.4 5.7 13 18.8 NNW 20 32 11 17 1007.5 1004.3 -
30/12:00pm 38.5 34.2 5.2 13 18.6 NNW 17 28 9 15 1007.9 1004.7 -
30/11:30am 39.6 35.1 7.1 14 18.7 NNW 20 50 11 27 1008.1 1004.9 -
30/11:00am 38.1 35.4 10.5 19 16.6 N 15 32 8 17 1008.4 1005.3 -
30/10:30am 38.1 33.7 10.5 19 16.6 NNW 24 33 13 18 1008.8 1005.6 -
30/10:00am 37.0 33.0 10.3 20 15.9 N 22 35 12 19 1009.0 1005.8 -
30/09:30am 35.6 31.1 9.9 21 15.1 N 24 33 13 18 1009.3 1006.1 -
30/09:00am 35.0 31.7 10.8 23 14.4 N 19 26 10 14 1009.5 1006.3 -
30/08:30am 34.1 30.9 11.9 26 13.4 NNW 20 28 11 15 1009.8 1006.6 -
30/08:00am 33.5 30.7 11.4 26 13.2 N 17 28 9 15 1010.0 1006.8 -
30/07:30am 31.9 29.6 10.6 27 12.5 NNW 13 19 7 10 1009.9 1006.7 -
30/07:00am 30.9 28.6 11.8 31 11.4 N 15 19 8 10 1010.0 1006.8 -
30/06:30am 29.9 28.2 13.6 36 9.9 NNE 15 19 8 10 1009.8 1006.6 -
30/06:00am 28.6 27.3 14.8 43 8.5 NE 15 20 8 11 1009.4 1006.2 -
30/05:30am 27.2 26.0 12.8 41 8.6 ENE 11 15 6 8 1009.1 1005.9 -
30/05:00am 27.5 27.5 12.3 39 9.0 N 4 6 2 3 1008.3 1005.1 -
30/04:30am 28.2 27.3 12.5 37 9.3 NE 9 15 5 8 1008.0 1004.8 -
30/04:00am 29.3 27.0 13.1 37 9.8 NE 17 20 9 11 1007.8 1004.6 -
30/03:30am 29.3 27.0 13.1 37 9.8 NE 17 19 9 10 1007.5 1004.3 -
30/03:00am 29.5 27.8 12.4 35 10.2 NNE 13 19 7 10 1007.5 1004.3 -
30/02:30am 30.4 27.7 10.4 29 11.6 NNE 15 20 8 11 1007.4 1004.2 -
30/02:00am 30.9 28.2 10.3 28 12.0 NW 15 19 8 10 1007.2 1004.0 -
30/01:30am 31.5 28.3 11.3 29 11.9 NW 19 24 10 13 1007.5 1004.3 -
30/01:00am 32.1 29.2 12.8 30 11.7 W 20 30 11 16 1007.5 1004.3 -
30/12:30am 31.5 31.3 14.6 35 10.5 NNE 9 13 5 7 1007.6 1004.4 -
30/12:00am 32.9 32.3 14.5 33 11.5 N 11 17 6 9 1007.4 1004.2 -
 
Date/Time
WST
Temp
°C
App
Temp
°C
Dew
Point
°C
Rel
Hum
%
Delta-T
°C
Wind Press
QNH
hPa
Press
MSL
hPa
Rain since
9am
mm
Dir  Spd
km/h
Gust
km/h
Spd
kts
Gust
kts
29/11:30pm 33.5 31.8 13.5 29 12.3 N 15 19 8 10 1007.4 1004.2 -
29/11:00pm 34.1 31.5 10.7 24 13.9 N 15 22 8 12 1007.5 1004.3 -
29/10:30pm 33.5 30.5 7.5 20 14.6 NE 13 15 7 8 1007.4 1004.2 -
29/10:00pm 33.9 30.9 7.8 20 14.8 NE 13 17 7 9 1007.3 1004.1 -
29/09:30pm 35.5 33.0 8.3 19 15.6 NNE 11 17 6 9 1007.3 1004.1 -
29/09:00pm 34.6 32.0 4.2 15 16.4 ENE 7 9 4 5 1006.8 1003.6 -
29/08:30pm 34.6 31.8 3.2 14 16.6 ENE 7 9 4 5 1006.6 1003.4 -
29/08:00pm 33.8 30.9 2.6 14 16.3 SE 7 11 4 6 1006.4 1003.2 -
29/07:30pm 37.0 34.9 4.0 13 17.9 SW 4 9 2 5 1006.0 1002.8 -
29/07:00pm 36.7 34.2 3.8 13 17.8 E 6 7 3 4 1005.7 1002.5 -
29/06:30pm 38.2 35.5 3.8 12 18.7 SE 7 11 4 6 1005.5 1002.3 -
29/06:00pm 39.6 36.5 3.7 11 19.7 ESE 9 11 5 6 1005.2 1002.0 -
29/05:30pm 40.1 36.7 4.0 11 19.9 S 11 13 6 7 1005.0 1001.8 -
29/05:00pm 39.8 36.4 3.8 11 19.8 SSE 11 15 6 8 1004.9 1001.7 -
29/04:30pm 39.2 35.9 4.6 12 19.1 S 11 17 6 9 1004.8 1001.6 -
29/04:00pm 39.2 36.7 4.6 12 19.2 S 7 13 4 7 1004.9 1001.7 -
29/03:30pm 39.0 36.1 4.4 12 19.1 S 9 13 5 7 1005.1 1001.9 -
29/03:00pm 39.1 35.8 4.5 12 19.2 SSE 11 20 6 11 1005.4 1002.2 -
29/02:30pm 39.5 36.2 4.8 12 19.3 ENE 11 19 6 10 1005.6 1002.4 -
29/02:00pm 40.0 35.7 5.2 12 19.5 N 17 26 9 14 1005.8 1002.6 -
29/01:30pm 40.5 37.2 4.3 11 20.1 SE 11 20 6 11 1006.3 1003.1 -
29/01:00pm 39.3 36.3 7.9 15 18.3 E 13 19 7 10 1006.8 1003.6 -
29/12:30pm 39.1 36.1 7.7 15 18.2 ESE 13 20 7 11 1007.1 1003.9 -
29/12:00pm 38.1 34.5 10.5 19 16.6 ENE 20 33 11 18 1007.5 1004.3 -
29/11:30am 38.6 36.1 12.4 21 16.2 NNE 17 30 9 16 1008.0 1004.8 -
29/11:00am 37.2 34.2 12.6 23 15.2 NE 20 32 11 17 1008.5 1005.4 -
29/10:30am 36.1 32.8 14.1 26 13.8 ENE 24 33 13 18 1009.0 1005.8 -
29/10:00am 35.5 31.5 14.2 28 13.4 NE 28 39 15 21 1009.2 1006.0 -
29/09:30am 34.7 31.0 15.1 31 12.4 ENE 28 39 15 21 1009.4 1006.2 -
29/09:00am 33.8 29.5 15.3 33 11.7 ENE 32 43 17 23 1009.5 1006.3 -
29/08:30am 32.4 27.8 15.0 35 10.9 ENE 33 46 18 25 1009.7 1006.5 -
29/08:00am 31.2 25.1 15.2 38 10.0 ENE 41 52 22 28 1009.6 1006.4 -
29/07:30am 30.0 24.4 14.5 38 9.6 ENE 37 52 20 28 1009.5 1006.3 -
29/07:00am 29.8 24.0 12.7 35 10.3 ENE 35 50 19 27 1009.5 1006.3 -
29/06:30am 29.1 21.4 11.6 33 10.3 ENE 43 57 23 31 1009.0 1005.8 -
29/06:00am 28.7 21.6 10.8 33 10.4 ENE 39 52 21 28 1008.5 1005.4 -
29/05:50am 28.6 22.9 11.2 34 10.1 NE 32 50 17 27 1008.4 1005.3 -
29/05:30am 28.8 24.4 14.2 40 8.9 ENE 30 41 16 22 1008.0 1004.8 -
29/05:00am 29.2 24.6 14.6 41 9.0 E 32 43 17 23 1007.3 1004.1 -
29/04:30am 29.9 24.9 14.0 37 9.7 E 33 43 18 23 1006.8 1003.6 -
29/04:00am 30.9 25.2 11.3 30 11.6 E 32 46 17 25 1006.3 1003.1 -
29/03:55am 31.1 26.3 11.5 30 11.6 E 28 46 15 25 1006.4 1003.2 -
29/03:30am 31.2 26.9 9.4 26 12.5 E 22 30 12 16 1006.2 1002.9 -
29/03:00am 31.5 27.4 7.9 23 13.3 ESE 19 32 10 17 1005.8 1002.6 -
29/02:30am 29.4 25.7 2.6 18 13.6 ESE 11 17 6 9 1005.9 1002.7 -
29/02:00am 28.7 25.4 -4.6 11 14.9 SW 4 6 2 3 1006.2 1002.9 -
29/01:30am 30.0 26.1 -4.9 10 15.6 WSW 7 9 4 5 1006.3 1003.1 -
29/01:00am 31.7 27.9 -3.6 10 16.4 SW 7 11 4 6 1006.5 1003.3 -
29/12:30am 31.6 27.3 -5.1 9 16.6 SSW 9 13 5 7 1006.7 1003.5 -
29/12:00am 32.3 27.6 -4.6 9 17.0 SSE 11 15 6 8 1006.9 1003.7 -

Other formats

Comma delimited format used in spreadsheet applications
http://www.bom.gov.au/fwo/IDW60801/IDW60801.94316.axf

JavaScript Object Notation format (JSON) in row-major order
http://www.bom.gov.au/fwo/IDW60801/IDW60801.94316.json

Data quality

Most of these data are generated automatically and are frequently updated. Quality checks on data are not normally performed. It is possible for incorrect values to appear. Refer to information at About Latest Weather Observations and please check the disclaimer before using these data.